Time;durP1;ratioP1;P1;durP2;ratioP2;P2;SDS_P1;SDS_P2;PMS_P1;PMS_P2;Temp;Humidity;BMP_temperature;BMP_pressure;BME280_temperature;BME280_humidity;BME280_pressure;Samples;Min_cycle;Max_cycle;Signal;HPM_P1;HPM_P2
2023/06/05 00:02:24;;;;;;;5.63;2.10;;;;;;;;;;5075084;28;20448;-59
2023/06/05 00:04:54;;;;;;;4.10;1.90;;;;;;;;;;5075764;28;20814;-60
2023/06/05 00:07:21;;;;;;;2.20;2.00;;;;;;;;;;5075462;28;20459;-59
2023/06/05 00:09:50;;;;;;;4.10;1.70;;;;;;;;;;5075425;28;20426;-59
2023/06/05 00:12:17;;;;;;;2.00;1.73;;;;;;;;;;5075392;28;20428;-59
2023/06/05 00:14:44;;;;;;;2.47;2.27;;;;;;;;;;5075448;28;20434;-59
2023/06/05 00:17:11;;;;;;;2.00;1.90;;;;;;;;;;5075345;28;20494;-59
2023/06/05 00:19:39;;;;;;;6.43;1.87;;;;;;;;;;5075226;28;20839;-59
2023/06/05 00:22:11;;;;;;;1.93;1.80;;;;;;;;;;5075299;28;20422;-60
2023/06/05 00:24:39;;;;;;;1.80;1.70;;;;;;;;;;5075213;28;21039;-59
2023/06/05 00:27:11;;;;;;;4.27;2.20;;;;;;;;;;5075165;28;20432;-59
2023/06/05 00:29:41;;;;;;;2.23;2.03;;;;;;;;;;5075219;28;20452;-59
2023/06/05 00:32:08;;;;;;;2.10;1.90;;;;;;;;;;5075115;28;20540;-59
2023/06/05 00:34:39;;;;;;;2.13;1.60;;;;;;;;;;5075011;28;20422;-59
2023/06/05 00:37:06;;;;;;;2.37;1.70;;;;;;;;;;5075029;28;20440;-59
2023/06/05 00:39:35;;;;;;;2.87;1.50;;;;;;;;;;5074730;28;20479;-59
2023/06/05 00:42:02;;;;;;;3.03;2.20;;;;;;;;;;5074870;28;20419;-59
2023/06/05 00:44:31;;;;;;;1.43;1.33;;;;;;;;;;5075201;28;20613;-59
2023/06/05 00:47:01;;;;;;;1.77;1.67;;;;;;;;;;5074796;28;20509;-59
2023/06/05 00:49:28;;;;;;;2.83;2.10;;;;;;;;;;5074041;28;20444;-59
2023/06/05 00:51:55;;;;;;;2.50;1.97;;;;;;;;;;5074981;28;20909;-59
2023/06/05 00:54:23;;;;;;;2.03;1.83;;;;;;;;;;5074702;28;20457;-60
2023/06/05 00:56:52;;;;;;;1.90;1.70;;;;;;;;;;5074613;28;20486;-59
2023/06/05 00:59:20;;;;;;;1.67;1.57;;;;;;;;;;5074588;28;20482;-60
2023/06/05 01:01:48;;;;;;;2.60;1.90;;;;;;;;;;5074434;28;20788;-60
2023/06/05 01:04:15;;;;;;;2.60;1.80;;;;;;;;;;5073641;28;20563;-60
2023/06/05 01:06:43;;;;;;;1.90;1.73;;;;;;;;;;5074489;28;20873;-59
2023/06/05 01:09:13;;;;;;;1.90;1.80;;;;;;;;;;5074459;28;20427;-59
2023/06/05 01:11:43;;;;;;;2.90;2.70;;;;;;;;;;5074306;28;20461;-58
2023/06/05 01:14:22;;;;;;;2.17;1.70;;;;;;;;;;5074640;28;20480;-59
2023/06/05 01:16:53;;;;;;;3.90;1.83;;;;;;;;;;5074518;28;20446;-59
2023/06/05 01:19:21;;;;;;;2.13;1.73;;;;;;;;;;5074296;28;20659;-59
2023/06/05 01:21:48;;;;;;;2.03;1.80;;;;;;;;;;5074230;28;20797;-59
2023/06/05 01:24:22;;;;;;;4.80;1.80;;;;;;;;;;5073878;28;20426;-61
2023/06/05 01:26:54;;;;;;;1.53;1.43;;;;;;;;;;5074283;28;20432;-59
2023/06/05 01:29:25;;;;;;;3.00;1.97;;;;;;;;;;5074294;28;20505;-59
2023/06/05 01:31:59;;;;;;;5.40;2.50;;;;;;;;;;5073980;28;20430;-59
2023/06/05 01:34:29;;;;;;;2.70;1.67;;;;;;;;;;5073614;28;20971;-59
2023/06/05 01:36:56;;;;;;;1.70;1.60;;;;;;;;;;5073740;28;20471;-59
2023/06/05 01:39:29;;;;;;;2.70;1.80;;;;;;;;;;5073813;28;20450;-59
2023/06/05 01:41:56;;;;;;;1.73;1.57;;;;;;;;;;5073884;28;20448;-59
2023/06/05 01:44:24;;;;;;;1.60;1.50;;;;;;;;;;5073815;28;20430;-60
2023/06/05 01:46:54;;;;;;;2.10;1.57;;;;;;;;;;5073443;28;20478;-59
2023/06/05 01:49:22;;;;;;;1.70;1.60;;;;;;;;;;5073716;28;20426;-59
2023/06/05 01:51:49;;;;;;;1.70;1.60;;;;;;;;;;5072913;28;20426;-59
2023/06/05 01:54:18;;;;;;;2.33;1.60;;;;;;;;;;5073424;28;20918;-59
2023/06/05 01:56:50;;;;;;;2.27;2.00;;;;;;;;;;5073303;28;20472;-59
2023/06/05 01:59:23;;;;;;;4.13;2.00;;;;;;;;;;5073073;28;21000;-59
2023/06/05 02:01:57;;;;;;;3.30;1.50;;;;;;;;;;5072654;28;20426;-59
2023/06/05 02:04:24;;;;;;;3.30;2.00;;;;;;;;;;5073423;28;20452;-59
2023/06/05 02:06:52;;;;;;;3.70;1.90;;;;;;;;;;5073293;28;20910;-59
2023/06/05 02:09:20;;;;;;;2.43;1.70;;;;;;;;;;5073267;28;21006;-59
2023/06/05 02:11:49;;;;;;;3.80;1.67;;;;;;;;;;5073309;28;20905;-59
2023/06/05 02:14:16;;;;;;;3.00;1.60;;;;;;;;;;5073679;28;20818;-59
2023/06/05 02:16:43;;;;;;;2.93;1.77;;;;;;;;;;5073305;28;20483;-59
2023/06/05 02:19:11;;;;;;;1.77;1.67;;;;;;;;;;5072940;28;20503;-59
2023/06/05 02:21:38;;;;;;;2.10;1.90;;;;;;;;;;5073057;28;20508;-59
2023/06/05 02:24:06;;;;;;;4.63;4.23;;;;;;;;;;5073009;28;20429;-60
2023/06/05 02:26:35;;;;;;;1.97;1.80;;;;;;;;;;5072983;28;20487;-59
2023/06/05 02:29:04;;;;;;;2.90;1.83;;;;;;;;;;5072843;28;20450;-59
2023/06/05 02:31:31;;;;;;;1.70;1.60;;;;;;;;;;5072903;28;20459;-59
2023/06/05 02:34:01;;;;;;;2.10;1.80;;;;;;;;;;5073070;28;20475;-60
2023/06/05 02:36:32;;;;;;;4.67;2.03;;;;;;;;;;5073070;28;20786;-59
2023/06/05 02:39:01;;;;;;;3.87;2.00;;;;;;;;;;5072934;28;20476;-59
2023/06/05 02:41:28;;;;;;;1.80;1.70;;;;;;;;;;5072469;28;20504;-59
2023/06/05 02:43:56;;;;;;;4.60;2.00;;;;;;;;;;5072699;28;20476;-59
2023/06/05 02:46:25;;;;;;;5.83;2.10;;;;;;;;;;5073247;28;20461;-59
2023/06/05 02:48:52;;;;;;;3.23;2.20;;;;;;;;;;5073394;28;20445;-59
2023/06/05 02:51:20;;;;;;;16.73;3.27;;;;;;;;;;5073227;28;20548;-59
2023/06/05 02:53:47;;;;;;;9.83;2.53;;;;;;;;;;5073283;28;20448;-59
2023/06/05 02:56:15;;;;;;;5.10;2.20;;;;;;;;;;5072467;28;20566;-59
2023/06/05 02:58:43;;;;;;;2.57;1.70;;;;;;;;;;5072956;28;20427;-59
2023/06/05 03:01:11;;;;;;;3.63;2.23;;;;;;;;;;5072776;28;20487;-59
2023/06/05 03:03:40;;;;;;;3.60;2.20;;;;;;;;;;5072632;28;20440;-59
2023/06/05 03:06:11;;;;;;;7.13;2.50;;;;;;;;;;5072677;28;20864;-59
2023/06/05 03:08:40;;;;;;;7.97;2.40;;;;;;;;;;5072627;28;20474;-59
2023/06/05 03:11:07;;;;;;;10.93;1.90;;;;;;;;;;5072518;28;20429;-58
2023/06/05 03:13:35;;;;;;;3.70;2.20;;;;;;;;;;5076144;28;20462;-59
2023/06/05 03:16:02;;;;;;;3.00;2.10;;;;;;;;;;5076406;28;20426;-59
2023/06/05 03:18:32;;;;;;;2.80;1.80;;;;;;;;;;5076483;28;20430;-59
2023/06/05 03:21:01;;;;;;;4.87;2.00;;;;;;;;;;5076260;28;20549;-58
2023/06/05 03:23:34;;;;;;;4.70;2.10;;;;;;;;;;5076368;28;20967;-58
2023/06/05 03:26:01;;;;;;;2.43;1.93;;;;;;;;;;5076466;28;20423;-59
2023/06/05 03:28:33;;;;;;;2.60;2.07;;;;;;;;;;5076433;28;20541;-59
2023/06/05 03:31:00;;;;;;;2.10;1.80;;;;;;;;;;5076405;28;20833;-59
2023/06/05 03:33:30;;;;;;;11.37;3.43;;;;;;;;;;5076089;28;20869;-59
2023/06/05 03:35:57;;;;;;;9.80;2.93;;;;;;;;;;5076425;28;20445;-59
2023/06/05 03:38:26;;;;;;;3.57;2.03;;;;;;;;;;5076434;28;20513;-59
2023/06/05 03:40:53;;;;;;;4.30;1.80;;;;;;;;;;5075830;28;20990;-59
2023/06/05 03:43:21;;;;;;;5.43;2.50;;;;;;;;;;5076074;28;20448;-59
2023/06/05 03:45:51;;;;;;;3.63;2.77;;;;;;;;;;5075830;28;20914;-59
2023/06/05 03:48:20;;;;;;;4.60;2.57;;;;;;;;;;5076147;28;20936;-59
2023/06/05 03:50:52;;;;;;;6.60;2.47;;;;;;;;;;5076053;28;20425;-59
2023/06/05 03:53:20;;;;;;;9.07;3.23;;;;;;;;;;5075371;28;20530;-59
2023/06/05 03:55:49;;;;;;;16.30;3.07;;;;;;;;;;5075503;28;20507;-59
2023/06/05 03:58:17;;;;;;;15.17;2.83;;;;;;;;;;5075583;28;20450;-59
2023/06/05 04:00:44;;;;;;;19.60;4.90;;;;;;;;;;5075524;28;20483;-59
2023/06/05 04:03:12;;;;;;;23.17;3.93;;;;;;;;;;5075793;28;20536;-59
2023/06/05 04:05:43;;;;;;;7.03;2.67;;;;;;;;;;5075712;28;20425;-59
2023/06/05 04:08:11;;;;;;;5.63;3.00;;;;;;;;;;5075216;28;20456;-59
2023/06/05 04:10:40;;;;;;;11.60;2.97;;;;;;;;;;5075388;28;20769;-60
2023/06/05 04:13:09;;;;;;;13.07;4.63;;;;;;;;;;5075418;28;20961;-59
2023/06/05 04:15:36;;;;;;;14.30;3.67;;;;;;;;;;5075617;28;20506;-59
2023/06/05 04:18:06;;;;;;;4.60;2.40;;;;;;;;;;5074947;28;20454;-60
2023/06/05 04:20:33;;;;;;;4.33;2.63;;;;;;;;;;5075252;28;20446;-59
2023/06/05 04:23:00;;;;;;;6.97;2.30;;;;;;;;;;5074807;28;20935;-59
2023/06/05 04:25:28;;;;;;;6.67;2.60;;;;;;;;;;5075216;28;20423;-59
2023/06/05 04:27:57;;;;;;;7.37;2.70;;;;;;;;;;5075060;28;20423;-59
2023/06/05 04:30:30;;;;;;;9.13;3.10;;;;;;;;;;5075101;28;20456;-59
2023/06/05 04:33:00;;;;;;;6.27;2.83;;;;;;;;;;5075131;28;20435;-59
2023/06/05 04:35:33;;;;;;;16.50;3.10;;;;;;;;;;5075350;28;20423;-59
2023/06/05 04:38:00;;;;;;;14.53;4.00;;;;;;;;;;5075636;28;20811;-59
2023/06/05 04:40:30;;;;;;;9.90;3.00;;;;;;;;;;5075290;28;20461;-59
2023/06/05 04:42:58;;;;;;;5.43;2.50;;;;;;;;;;5074892;28;20452;-59
2023/06/05 04:45:26;;;;;;;5.00;2.07;;;;;;;;;;5075151;28;20429;-61
2023/06/05 04:47:54;;;;;;;5.27;2.73;;;;;;;;;;5074821;28;20448;-59
2023/06/05 04:50:26;;;;;;;5.90;2.07;;;;;;;;;;5074687;28;20942;-60
2023/06/05 04:52:55;;;;;;;4.37;2.17;;;;;;;;;;5074771;28;20451;-59
2023/06/05 04:55:22;;;;;;;4.03;2.13;;;;;;;;;;5074431;28;20983;-59
2023/06/05 04:57:53;;;;;;;5.40;2.93;;;;;;;;;;5074562;28;20418;-59
2023/06/05 05:00:21;;;;;;;7.63;2.20;;;;;;;;;;5074663;28;20823;-59
2023/06/05 05:02:50;;;;;;;2.33;1.77;;;;;;;;;;5074602;28;20448;-59
2023/06/05 05:05:18;;;;;;;3.63;1.73;;;;;;;;;;5074423;28;20531;-59
2023/06/05 05:07:45;;;;;;;3.97;2.40;;;;;;;;;;5074435;28;20938;-59
2023/06/05 05:10:13;;;;;;;1.97;1.80;;;;;;;;;;5074500;28;20812;-59
2023/06/05 05:12:40;;;;;;;1.50;1.40;;;;;;;;;;5074295;28;20452;-59
2023/06/05 05:15:07;;;;;;;4.33;2.33;;;;;;;;;;5074318;28;20518;-60
2023/06/05 05:17:34;;;;;;;1.60;1.50;;;;;;;;;;5073956;28;20456;-59
2023/06/05 05:20:06;;;;;;;4.03;1.77;;;;;;;;;;5074092;28;20501;-60
2023/06/05 05:22:33;;;;;;;5.33;1.60;;;;;;;;;;5074328;28;20449;-59
2023/06/05 05:25:03;;;;;;;1.77;1.60;;;;;;;;;;5074045;28;20453;-59
2023/06/05 05:27:31;;;;;;;2.37;1.43;;;;;;;;;;5074197;28;20502;-59
2023/06/05 05:29:59;;;;;;;5.53;3.20;;;;;;;;;;5074026;28;21001;-59
2023/06/05 05:32:26;;;;;;;3.30;2.00;;;;;;;;;;5073364;28;20456;-59
2023/06/05 05:34:53;;;;;;;8.07;2.40;;;;;;;;;;5073176;28;20423;-59
2023/06/05 05:37:22;;;;;;;2.47;1.40;;;;;;;;;;5073672;28;20423;-59
2023/06/05 05:39:52;;;;;;;6.57;1.80;;;;;;;;;;5073802;28;20463;-59
2023/06/05 05:42:19;;;;;;;3.17;1.80;;;;;;;;;;5073789;28;20455;-59
2023/06/05 05:44:46;;;;;;;2.00;1.40;;;;;;;;;;5073178;28;20424;-59
2023/06/05 05:47:13;;;;;;;2.60;1.60;;;;;;;;;;5073695;28;20944;-59
2023/06/05 05:49:43;;;;;;;3.40;1.60;;;;;;;;;;5073700;28;20538;-59
2023/06/05 05:52:10;;;;;;;2.53;1.60;;;;;;;;;;5073711;28;20427;-58
2023/06/05 05:54:38;;;;;;;4.60;1.90;;;;;;;;;;5073469;28;20502;-59
2023/06/05 05:57:07;;;;;;;5.87;3.20;;;;;;;;;;5073240;28;20501;-60
2023/06/05 05:59:34;;;;;;;2.13;2.03;;;;;;;;;;5073268;28;20469;-60
2023/06/05 06:02:08;;;;;;;2.47;2.00;;;;;;;;;;5073088;28;20492;-60
2023/06/05 06:04:35;;;;;;;2.13;2.03;;;;;;;;;;5073269;28;20511;-59
2023/06/05 06:07:02;;;;;;;2.43;1.47;;;;;;;;;;5073312;28;20846;-59
2023/06/05 06:09:30;;;;;;;2.10;2.00;;;;;;;;;;5073147;28;20441;-59
2023/06/05 06:11:58;;;;;;;2.30;1.67;;;;;;;;;;5073253;28;20506;-59
2023/06/05 06:14:25;;;;;;;2.07;1.90;;;;;;;;;;5073278;28;20422;-59
2023/06/05 06:16:54;;;;;;;5.60;2.57;;;;;;;;;;5072705;28;20498;-59
2023/06/05 06:19:23;;;;;;;1.70;1.60;;;;;;;;;;5073175;28;20449;-60
2023/06/05 06:21:50;;;;;;;4.50;1.80;;;;;;;;;;5072709;28;20531;-59
2023/06/05 06:24:20;;;;;;;4.03;1.90;;;;;;;;;;5072666;28;20468;-59
2023/06/05 06:26:47;;;;;;;4.57;2.00;;;;;;;;;;5072992;28;20454;-59
2023/06/05 06:29:19;;;;;;;10.10;2.60;;;;;;;;;;5072929;28;20804;-59
2023/06/05 06:31:46;;;;;;;8.10;2.10;;;;;;;;;;5072914;28;20461;-59
2023/06/05 06:34:13;;;;;;;4.37;1.93;;;;;;;;;;5072779;28;20948;-59
2023/06/05 06:36:41;;;;;;;3.30;1.70;;;;;;;;;;5072662;28;20458;-59
2023/06/05 06:39:10;;;;;;;1.67;1.57;;;;;;;;;;5073139;28;20876;-59
2023/06/05 06:41:38;;;;;;;2.53;1.90;;;;;;;;;;5072631;28;20490;-59
2023/06/05 06:44:07;;;;;;;5.27;1.33;;;;;;;;;;5073003;28;20456;-61
2023/06/05 06:46:37;;;;;;;2.20;1.73;;;;;;;;;;5072718;28;20593;-59
2023/06/05 06:49:06;;;;;;;2.10;1.90;;;;;;;;;;5072585;28;21008;-59
2023/06/05 06:51:33;;;;;;;3.30;1.80;;;;;;;;;;5072665;28;20453;-59
2023/06/05 06:54:00;;;;;;;2.47;1.30;;;;;;;;;;5072556;28;20540;-59
2023/06/05 06:56:32;;;;;;;2.30;1.63;;;;;;;;;;5082485;28;20527;-59
2023/06/05 06:58:59;;;;;;;2.67;2.10;;;;;;;;;;5092816;28;20450;-59
2023/06/05 07:01:26;;;;;;;5.13;2.27;;;;;;;;;;5092309;28;20477;-59
2023/06/05 07:03:57;;;;;;;4.43;2.20;;;;;;;;;;5092703;28;20453;-60
2023/06/05 07:06:24;;;;;;;2.27;1.93;;;;;;;;;;5091796;28;20496;-60
2023/06/05 07:08:52;;;;;;;3.53;1.77;;;;;;;;;;5092919;28;20842;-59
2023/06/05 07:11:19;;;;;;;2.83;2.10;;;;;;;;;;5092715;28;20457;-59
2023/06/05 07:13:46;;;;;;;1.73;1.60;;;;;;;;;;5092705;28;20856;-59
2023/06/05 07:16:15;;;;;;;2.33;1.17;;;;;;;;;;5092585;28;20455;-60
2023/06/05 07:18:42;;;;;;;3.83;1.90;;;;;;;;;;5092914;28;20450;-59
2023/06/05 07:21:10;;;;;;;1.63;1.53;;;;;;;;;;5092455;28;20474;-59
2023/06/05 07:23:39;;;;;;;2.50;1.63;;;;;;;;;;5092726;28;20867;-59
2023/06/05 07:26:06;;;;;;;3.50;1.97;;;;;;;;;;5092953;28;20454;-59
2023/06/05 07:28:33;;;;;;;2.37;1.80;;;;;;;;;;5092602;28;20499;-58
2023/06/05 07:31:03;;;;;;;1.57;1.47;;;;;;;;;;5092581;28;20452;-59
2023/06/05 07:33:30;;;;;;;2.33;1.60;;;;;;;;;;5092804;28;20449;-59
2023/06/05 07:35:57;;;;;;;2.77;1.67;;;;;;;;;;5092522;28;20481;-59
2023/06/05 07:38:26;;;;;;;4.07;1.70;;;;;;;;;;5092528;28;20454;-59
2023/06/05 07:40:53;;;;;;;6.63;2.50;;;;;;;;;;5092492;28;20863;-57
2023/06/05 07:43:20;;;;;;;1.73;1.50;;;;;;;;;;5092309;28;20835;-54
2023/06/05 07:45:47;;;;;;;1.97;1.20;;;;;;;;;;5092381;28;20475;-59
2023/06/05 07:48:15;;;;;;;10.50;1.60;;;;;;;;;;5092584;28;20446;-59
2023/06/05 07:50:42;;;;;;;2.07;1.70;;;;;;;;;;5092169;28;20443;-59
2023/06/05 07:53:09;;;;;;;1.70;1.60;;;;;;;;;;5092456;28;20475;-60
2023/06/05 07:55:37;;;;;;;3.17;1.40;;;;;;;;;;5091858;28;20798;-59
2023/06/05 07:58:04;;;;;;;3.90;1.50;;;;;;;;;;5093417;28;20445;-59
2023/06/05 08:00:31;;;;;;;3.07;1.73;;;;;;;;;;5096096;28;20481;-59
2023/06/05 08:02:59;;;;;;;1.70;1.23;;;;;;;;;;5096123;28;20479;-59
2023/06/05 08:05:27;;;;;;;1.90;1.60;;;;;;;;;;5095897;28;20466;-59
2023/06/05 08:07:54;;;;;;;2.27;1.70;;;;;;;;;;5095978;28;20942;-59
2023/06/05 08:10:21;;;;;;;1.90;1.43;;;;;;;;;;5086361;28;20866;-59
2023/06/05 08:12:49;;;;;;;1.67;1.27;;;;;;;;;;5075255;28;21065;-60
2023/06/05 08:15:16;;;;;;;4.67;1.20;;;;;;;;;;5075689;28;20546;-60
2023/06/05 08:17:43;;;;;;;1.30;1.20;;;;;;;;;;5075217;28;20452;-59
2023/06/05 08:20:11;;;;;;;2.47;1.50;;;;;;;;;;5075150;28;20475;-59
2023/06/05 08:22:40;;;;;;;4.60;1.80;;;;;;;;;;5075137;28;20483;-57
2023/06/05 08:25:08;;;;;;;4.43;1.50;;;;;;;;;;5075082;28;20537;-59
2023/06/05 08:27:35;;;;;;;5.13;1.60;;;;;;;;;;5075318;28;20451;-61
2023/06/05 08:30:03;;;;;;;2.90;1.70;;;;;;;;;;5075083;28;20851;-59
2023/06/05 08:32:30;;;;;;;4.60;2.27;;;;;;;;;;5075172;28;20984;-59
2023/06/05 08:34:57;;;;;;;2.70;1.87;;;;;;;;;;5074855;28;20500;-58
2023/06/05 08:37:25;;;;;;;4.50;1.77;;;;;;;;;;5075018;28;20537;-60
2023/06/05 08:39:53;;;;;;;3.80;1.80;;;;;;;;;;5074646;28;20874;-56
2023/06/05 08:42:20;;;;;;;31.90;3.37;;;;;;;;;;5075015;28;20256;-59
2023/06/05 08:44:50;;;;;;;2.60;1.50;;;;;;;;;;5074891;28;20455;-58
2023/06/05 08:47:18;;;;;;;1.97;1.63;;;;;;;;;;5074946;28;20521;-58
2023/06/05 08:49:46;;;;;;;1.60;1.50;;;;;;;;;;5074710;28;20448;-59
2023/06/05 08:52:14;;;;;;;2.40;1.67;;;;;;;;;;5074703;28;20456;-58
2023/06/05 08:54:42;;;;;;;4.63;1.53;;;;;;;;;;5074780;28;20855;-58
2023/06/05 08:57:10;;;;;;;5.00;1.40;;;;;;;;;;5074629;28;20959;-58
2023/06/05 08:59:40;;;;;;;2.80;1.43;;;;;;;;;;5074471;28;20940;-58
2023/06/05 09:02:07;;;;;;;1.40;1.30;;;;;;;;;;5074856;28;20563;-58
2023/06/05 09:04:36;;;;;;;4.60;1.20;;;;;;;;;;5074466;28;20932;-59
2023/06/05 09:07:03;;;;;;;1.77;1.67;;;;;;;;;;5074318;28;20859;-58
2023/06/05 09:09:30;;;;;;;1.60;1.47;;;;;;;;;;5073878;28;20517;-57
2023/06/05 09:12:04;;;;;;;3.07;1.43;;;;;;;;;;5074435;28;20452;-54
2023/06/05 09:14:32;;;;;;;1.87;1.20;;;;;;;;;;5080146;28;20522;-53
2023/06/05 09:17:00;;;;;;;3.50;1.47;;;;;;;;;;5095379;28;20457;-55
2023/06/05 09:19:36;;;;;;;1.83;1.27;;;;;;;;;;5103908;28;20446;-54
2023/06/05 09:22:06;;;;;;;1.30;1.17;;;;;;;;;;5104754;28;20469;-54
2023/06/05 09:24:34;;;;;;;1.30;1.20;;;;;;;;;;5108148;28;20852;-54
2023/06/05 09:27:01;;;;;;;2.47;1.60;;;;;;;;;;5096515;28;20476;-59
2023/06/05 09:29:29;;;;;;;5.77;1.20;;;;;;;;;;5094197;28;20451;-58
2023/06/05 09:31:57;;;;;;;3.53;1.30;;;;;;;;;;5093779;28;20447;-59
2023/06/05 09:34:25;;;;;;;2.03;1.70;;;;;;;;;;5107045;28;20469;-60
2023/06/05 09:36:54;;;;;;;3.57;1.33;;;;;;;;;;5097276;28;20564;-60
2023/06/05 09:39:24;;;;;;;3.83;2.13;;;;;;;;;;5097685;28;20474;-61
2023/06/05 09:41:52;;;;;;;1.63;1.53;;;;;;;;;;5102277;28;20447;-59
2023/06/05 09:44:19;;;;;;;2.43;1.60;;;;;;;;;;5094431;28;20451;-59
2023/06/05 09:46:53;;;;;;;1.77;1.60;;;;;;;;;;5094678;28;20805;-59
2023/06/05 09:49:20;;;;;;;1.70;1.40;;;;;;;;;;5093652;28;20449;-59
2023/06/05 09:51:51;;;;;;;2.57;1.80;;;;;;;;;;5096630;28;20439;-60
2023/06/05 09:54:18;;;;;;;1.57;1.47;;;;;;;;;;5105245;28;20529;-60
2023/06/05 09:56:49;;;;;;;1.60;1.50;;;;;;;;;;5097737;28;20478;-60
2023/06/05 09:59:20;;;;;;;2.27;1.50;;;;;;;;;;5111400;28;20449;-57
2023/06/05 10:01:47;;;;;;;3.10;1.50;;;;;;;;;;5105985;28;20435;-60
2023/06/05 10:04:15;;;;;;;3.07;1.30;;;;;;;;;;5104745;28;20647;-61
2023/06/05 10:06:43;;;;;;;1.80;1.40;;;;;;;;;;5098261;28;20537;-60
2023/06/05 10:09:11;;;;;;;3.00;1.40;;;;;;;;;;5097899;28;20447;-60
2023/06/05 10:11:38;;;;;;;2.03;1.83;;;;;;;;;;5094748;28;20447;-59
2023/06/05 10:14:07;;;;;;;1.43;1.33;;;;;;;;;;5094628;28;20549;-59
2023/06/05 10:16:34;;;;;;;3.33;1.33;;;;;;;;;;5094658;28;20808;-58
2023/06/05 10:19:02;;;;;;;2.63;1.50;;;;;;;;;;5109867;28;20446;-59
2023/06/05 10:21:29;;;;;;;3.30;1.70;;;;;;;;;;5097492;28;20453;-60
2023/06/05 10:24:00;;;;;;;1.53;1.43;;;;;;;;;;5101723;28;20474;-59
2023/06/05 10:26:39;;;;;;;2.30;1.40;;;;;;;;;;5099982;28;20538;-60
2023/06/05 10:29:13;;;;;;;1.60;1.50;;;;;;;;;;5109861;28;20449;-59
2023/06/05 10:31:46;;;;;;;4.40;1.60;;;;;;;;;;5099548;28;20446;-59
2023/06/05 10:34:26;;;;;;;2.30;1.70;;;;;;;;;;5102042;28;21029;-56
2023/06/05 10:37:21;;;;;;;5.03;1.37;;;;;;;;;;5109745;28;20437;-51
2023/06/05 10:39:48;;;;;;;1.40;1.30;;;;;;;;;;5100712;28;20442;-54
2023/06/05 10:42:23;;;;;;;1.50;1.40;;;;;;;;;;5101515;28;20439;-55
2023/06/05 10:44:51;;;;;;;4.87;1.67;;;;;;;;;;5109251;28;20481;-60
2023/06/05 10:47:37;;;;;;;2.13;1.60;;;;;;;;;;5079912;28;20441;-60
2023/06/05 10:50:25;;;;;;;3.30;1.60;;;;;;;;;;5102995;28;20447;-60
2023/06/05 10:52:52;;;;;;;5.07;2.10;;;;;;;;;;5109484;28;20840;-60
2023/06/05 10:55:20;;;;;;;2.90;1.60;;;;;;;;;;5096079;28;20817;-58
2023/06/05 10:58:10;;;;;;;3.13;1.77;;;;;;;;;;5105409;28;20442;-58
2023/06/05 11:00:39;;;;;;;5.03;1.70;;;;;;;;;;5107403;28;20504;-57
2023/06/05 11:03:07;;;;;;;2.17;1.63;;;;;;;;;;5095985;28;20924;-58
2023/06/05 11:05:35;;;;;;;1.80;1.70;;;;;;;;;;5107078;28;20999;-59
2023/06/05 11:08:12;;;;;;;3.37;1.33;;;;;;;;;;5102448;28;20445;-59
2023/06/05 11:10:39;;;;;;;2.73;1.47;;;;;;;;;;5097916;28;20490;-59
2023/06/05 11:13:07;;;;;;;10.43;2.57;;;;;;;;;;5109146;28;20467;-60
2023/06/05 11:15:43;;;;;;;1.60;1.50;;;;;;;;;;5097204;28;20454;-60
2023/06/05 11:18:28;;;;;;;1.47;1.37;;;;;;;;;;5101788;28;20189;-60
2023/06/05 11:20:55;;;;;;;2.60;2.00;;;;;;;;;;5100062;28;20467;-59
2023/06/05 11:23:27;;;;;;;1.75;1.65;;;;;;;;;;5098823;28;20456;-60
2023/06/05 11:25:56;;;;;;;3.53;1.90;;;;;;;;;;5092574;28;21176;-62
2023/06/05 11:28:39;;;;;;;1.70;1.60;;;;;;;;;;5092676;28;20449;-59
2023/06/05 11:31:07;;;;;;;3.50;1.60;;;;;;;;;;5108679;28;20184;-60
2023/06/05 11:33:34;;;;;;;2.00;1.80;;;;;;;;;;5094972;28;20464;-60
2023/06/05 11:36:02;;;;;;;3.57;1.70;;;;;;;;;;5096641;28;20442;-60
2023/06/05 11:38:29;;;;;;;2.13;1.60;;;;;;;;;;5096287;28;20447;-60
2023/06/05 11:40:56;;;;;;;3.70;2.10;;;;;;;;;;5095152;28;20530;-59
2023/06/05 11:43:23;;;;;;;2.33;1.40;;;;;;;;;;5096373;28;20231;-61
2023/06/05 11:45:51;;;;;;;3.40;2.23;;;;;;;;;;5096278;28;20841;-59
2023/06/05 11:48:19;;;;;;;2.25;1.80;;;;;;;;;;5095619;28;20531;-59
2023/06/05 11:50:53;;;;;;;2.20;2.00;;;;;;;;;;5095196;28;20448;-59
2023/06/05 11:53:22;;;;;;;2.33;1.70;;;;;;;;;;5096052;28;20534;-59
2023/06/05 11:56:06;;;;;;;1.93;1.70;;;;;;;;;;5095116;28;20448;-58
2023/06/05 11:58:34;;;;;;;2.55;1.80;;;;;;;;;;5095108;28;20489;-58
2023/06/05 12:01:06;;;;;;;4.57;1.70;;;;;;;;;;5095616;28;20193;-59
2023/06/05 12:03:35;;;;;;;1.60;1.50;;;;;;;;;;5095905;28;20486;-59
2023/06/05 12:06:03;;;;;;;2.23;2.03;;;;;;;;;;5095685;28;20934;-60
2023/06/05 12:08:32;;;;;;;2.10;2.00;;;;;;;;;;5095944;28;20451;-55
2023/06/05 12:10:59;;;;;;;2.53;1.50;;;;;;;;;;5095850;28;20451;-55
2023/06/05 12:13:43;;;;;;;2.17;1.80;;;;;;;;;;5095740;28;20946;-58
2023/06/05 12:16:10;;;;;;;2.00;1.90;;;;;;;;;;5094958;28;20445;-59
2023/06/05 12:18:38;;;;;;;2.60;1.63;;;;;;;;;;5095442;28;20524;-59
2023/06/05 12:21:22;;;;;;;3.00;1.83;;;;;;;;;;5095508;28;20500;-57
2023/06/05 12:23:49;;;;;;;2.83;1.63;;;;;;;;;;5095299;28;20569;-58
2023/06/05 12:26:17;;;;;;;3.63;1.57;;;;;;;;;;5095351;28;20802;-59
2023/06/05 12:28:45;;;;;;;3.20;1.70;;;;;;;;;;5095458;28;20454;-60
2023/06/05 12:31:12;;;;;;;2.20;1.73;;;;;;;;;;5095419;28;20982;-59
2023/06/05 12:33:51;;;;;;;4.70;2.00;;;;;;;;;;5095132;28;20958;-59
2023/06/05 12:36:18;;;;;;;1.63;1.53;;;;;;;;;;5095359;28;20958;-59
2023/06/05 12:38:45;;;;;;;2.00;1.70;;;;;;;;;;5095151;28;20453;-59
2023/06/05 12:41:12;;;;;;;2.33;1.80;;;;;;;;;;5095234;28;20537;-58
2023/06/05 12:43:39;;;;;;;2.10;1.73;;;;;;;;;;5094737;28;20517;-59
2023/06/05 12:46:07;;;;;;;4.27;1.80;;;;;;;;;;5095204;28;20817;-60
2023/06/05 12:48:35;;;;;;;2.00;1.50;;;;;;;;;;5095466;28;20948;-58
2023/06/05 12:51:03;;;;;;;1.50;1.40;;;;;;;;;;5095037;28;20451;-59
2023/06/05 12:53:31;;;;;;;1.53;1.43;;;;;;;;;;5094963;28;20526;-59
2023/06/05 12:55:58;;;;;;;1.70;1.60;;;;;;;;;;5094798;28;20850;-60
2023/06/05 12:58:25;;;;;;;4.50;1.50;;;;;;;;;;5094757;28;20447;-60
2023/06/05 13:00:53;;;;;;;2.30;2.20;;;;;;;;;;5094911;28;20451;-60
2023/06/05 13:03:20;;;;;;;1.40;1.30;;;;;;;;;;5094763;28;20475;-59
2023/06/05 13:05:47;;;;;;;2.23;1.80;;;;;;;;;;5094804;28;20538;-59
2023/06/05 13:08:16;;;;;;;3.13;2.00;;;;;;;;;;5094621;28;20447;-59
2023/06/05 13:10:43;;;;;;;3.50;1.90;;;;;;;;;;5094121;28;20542;-59
2023/06/05 13:13:10;;;;;;;1.73;1.63;;;;;;;;;;5094809;28;20459;-60
2023/06/05 13:15:37;;;;;;;2.10;1.87;;;;;;;;;;5094669;28;20482;-59
2023/06/05 13:18:04;;;;;;;2.73;1.80;;;;;;;;;;5094264;28;20482;-59
2023/06/05 13:20:33;;;;;;;3.00;1.57;;;;;;;;;;5094423;28;20443;-60
2023/06/05 13:23:00;;;;;;;2.80;1.83;;;;;;;;;;5094214;28;20541;-59
2023/06/05 13:25:29;;;;;;;1.83;1.73;;;;;;;;;;5094440;28;20451;-58
2023/06/05 13:27:56;;;;;;;2.67;1.83;;;;;;;;;;5094255;28;20549;-59
2023/06/05 13:30:24;;;;;;;1.97;1.80;;;;;;;;;;5094263;28;20546;-59
2023/06/05 13:32:53;;;;;;;2.00;1.90;;;;;;;;;;5094401;28;20534;-59
2023/06/05 13:35:20;;;;;;;2.83;1.70;;;;;;;;;;5093646;28;20930;-59
2023/06/05 13:37:49;;;;;;;4.30;2.20;;;;;;;;;;5093968;28;20534;-59
2023/06/05 13:40:16;;;;;;;4.73;1.83;;;;;;;;;;5094283;28;20482;-59
2023/06/05 13:42:45;;;;;;;2.63;1.50;;;;;;;;;;5094344;28;20447;-59
2023/06/05 13:45:12;;;;;;;1.70;1.60;;;;;;;;;;5093828;28;20482;-59
2023/06/05 13:47:39;;;;;;;1.80;1.70;;;;;;;;;;5093725;28;20830;-59
2023/06/05 13:50:07;;;;;;;1.87;1.77;;;;;;;;;;5093789;28;20540;-59
2023/06/05 13:52:34;;;;;;;2.03;1.93;;;;;;;;;;5093679;28;21071;-59
2023/06/05 13:55:01;;;;;;;2.17;1.70;;;;;;;;;;5093403;28;20511;-59
2023/06/05 13:57:28;;;;;;;1.93;1.83;;;;;;;;;;5093520;28;20450;-59
2023/06/05 13:59:56;;;;;;;2.73;1.70;;;;;;;;;;5093791;28;20451;-59
2023/06/05 14:02:23;;;;;;;3.73;1.67;;;;;;;;;;5093691;28;20450;-59
2023/06/05 14:04:50;;;;;;;3.07;2.10;;;;;;;;;;5093635;28;20537;-59
2023/06/05 14:07:17;;;;;;;3.80;2.30;;;;;;;;;;5093606;28;20451;-59
2023/06/05 14:09:44;;;;;;;1.53;1.43;;;;;;;;;;5093946;28;20447;-59
2023/06/05 14:12:11;;;;;;;4.03;1.70;;;;;;;;;;5093412;28;20454;-59
2023/06/05 14:14:38;;;;;;;4.03;1.97;;;;;;;;;;5093470;28;20450;-59
2023/06/05 14:17:06;;;;;;;3.03;2.00;;;;;;;;;;5093279;28;20537;-59
2023/06/05 14:19:33;;;;;;;2.60;1.70;;;;;;;;;;5093481;28;20538;-59
2023/06/05 14:22:00;;;;;;;3.40;1.83;;;;;;;;;;5093386;28;20537;-59
2023/06/05 14:24:27;;;;;;;2.90;1.67;;;;;;;;;;5093097;28;20841;-59
2023/06/05 14:26:54;;;;;;;1.93;1.83;;;;;;;;;;5093341;28;20677;-59
2023/06/05 14:29:21;;;;;;;1.80;1.70;;;;;;;;;;5093201;28;20459;-59
2023/06/05 14:31:48;;;;;;;1.90;1.80;;;;;;;;;;5093047;28;20474;-59
2023/06/05 14:34:17;;;;;;;3.70;1.50;;;;;;;;;;5093358;28;20470;-59
2023/06/05 14:36:49;;;;;;;3.03;2.07;;;;;;;;;;5093217;28;20537;-59
2023/06/05 14:39:18;;;;;;;5.63;2.17;;;;;;;;;;5093091;28;20457;-59
2023/06/05 14:41:45;;;;;;;4.63;1.83;;;;;;;;;;5093021;28;20541;-59
2023/06/05 14:44:11;;;;;;;3.10;1.70;;;;;;;;;;5092867;28;20475;-58
2023/06/05 14:46:38;;;;;;;1.83;1.50;;;;;;;;;;5093144;28;20538;-59
2023/06/05 14:49:06;;;;;;;2.43;2.17;;;;;;;;;;5093119;28;20443;-59
2023/06/05 14:51:34;;;;;;;1.73;1.63;;;;;;;;;;5093202;28;20447;-59
2023/06/05 14:54:01;;;;;;;2.13;1.57;;;;;;;;;;5093039;28;20861;-59